Time;durP1;ratioP1;P1;durP2;ratioP2;P2;SDS_P1;SDS_P2;PMS_P1;PMS_P2;Temp;Humidity;BMP_temperature;BMP_pressure;BME280_temperature;BME280_humidity;BME280_pressure;Samples;Min_cycle;Max_cycle;Signal;HPM_P1;HPM_P2
2023/12/15 00:00:50;;;;;;;30.65;11.52;;;;;;;;;;5071446;28;20454;-89
2023/12/15 00:03:34;;;;;;;17.35;10.93;;;;;;;;;;5052643;28;20033;-90
2023/12/15 00:06:01;;;;;;;19.60;9.07;;;;;;;;;;5070603;28;20032;-86
2023/12/15 00:08:36;;;;;;;17.38;9.70;;;;;;;;;;5076952;28;20107;-87
2023/12/15 00:11:02;;;;;;;17.90;9.57;;;;;;;;;;5064985;28;20049;-90
2023/12/15 00:13:37;;;;;;;16.42;9.38;;;;;;;;;;5072816;28;20028;-89
2023/12/15 00:16:06;;;;;;;18.00;9.45;;;;;;;;;;5076508;28;20539;-84
2023/12/15 00:18:35;;;;;;;16.83;9.60;;;;;;;;;;5077189;28;20033;-87
2023/12/15 00:21:24;;;;;;;17.52;9.05;;;7.10;99.90;;;;;;5060670;28;20028;-89
2023/12/15 00:23:53;;;;;;;18.25;9.95;;;;;;;;;;5074494;28;20039;-87
2023/12/15 00:26:35;;;;;;;19.17;11.27;;;7.10;99.90;;;;;;5054170;28;20119;-89
2023/12/15 00:29:12;;;;;;;20.90;12.15;;;;;;;;;;5073548;28;20017;-90
2023/12/15 00:34:48;;;;;;;19.67;11.30;;;;;;;;;;5061414;28;20017;-89
2023/12/15 00:37:14;;;;;;;16.08;9.15;;;;;;;;;;5074380;28;20115;-90
2023/12/15 00:40:02;;;;;;;16.25;9.98;;;;;;;;;;5074519;28;20497;-89
2023/12/15 00:42:29;;;;;;;18.80;10.50;;;;;;;;;;5072286;28;20120;-89
2023/12/15 00:45:02;;;;;;;17.88;9.88;;;;;;;;;;5052806;28;20089;-90
2023/12/15 00:47:28;;;;;;;18.95;11.32;;;;;;;;;;5073826;28;20036;-89
2023/12/15 00:49:54;;;;;;;17.30;10.50;;;;;;;;;;5053963;28;20028;-87
2023/12/15 00:52:25;;;;;;;18.65;10.18;;;;;;;;;;5075383;28;20021;-90
2023/12/15 00:54:57;;;;;;;21.50;11.32;;;;;;;;;;5072356;28;20050;-89
2023/12/15 00:57:26;;;;;;;18.45;9.82;;;;;;;;;;5055018;28;20037;-89
2023/12/15 01:00:00;;;;;;;23.23;11.18;;;;;;;;;;5070264;28;20017;-89
2023/12/15 01:02:50;;;;;;;20.60;11.18;;;;;;;;;;5056912;28;20036;-87
2023/12/15 01:05:32;;;;;;;19.50;9.30;;;;;;;;;;5043491;28;20111;-91
2023/12/15 01:14:47;;;;;;;16.40;9.70;;;7.00;99.90;;;;;;5069635;28;20623;-88
2023/12/15 01:17:21;;;;;;;19.00;10.75;;;;;;;;;;5064750;28;20038;-89
2023/12/15 01:28:56;;;;;;;20.85;11.25;;;;;;;;;;5027158;28;20037;-86
2023/12/15 01:31:24;;;;;;;23.02;12.57;;;;;;;;;;5063844;28;20124;-86
2023/12/15 01:33:50;;;;;;;25.20;12.80;;;;;;;;;;5073684;28;20016;-83
2023/12/15 01:36:17;;;;;;;25.27;12.27;;;;;;;;;;5054309;28;20029;-88
2023/12/15 01:38:43;;;;;;;24.08;12.38;;;;;;;;;;5070811;28;20074;-87
2023/12/15 01:41:09;;;;;;;22.05;11.75;;;;;;;;;;5071769;28;20474;-88
2023/12/15 01:43:38;;;;;;;20.25;11.57;;;;;;;;;;5050230;28;20031;-89
2023/12/15 01:46:04;;;;;;;23.35;11.45;;;;;;;;;;5069079;28;21030;-87
2023/12/15 01:48:31;;;;;;;21.52;12.63;;;;;;;;;;5069492;28;20027;-88
2023/12/15 01:50:57;;;;;;;22.83;11.68;;;;;;;;;;5052913;28;20500;-89
2023/12/15 01:53:23;;;;;;;21.42;11.32;;;;;;;;;;5071903;28;20028;-86
2023/12/15 01:55:49;;;;;;;20.35;11.57;;;;;;;;;;5075857;28;20031;-89
2023/12/15 01:58:15;;;;;;;23.25;12.18;;;;;;;;;;5083363;28;20115;-86
2023/12/15 02:00:42;;;;;;;21.00;12.15;;;;;;;;;;5065826;28;21960;-89
2023/12/15 02:03:08;;;;;;;24.33;12.57;;;;;;;;;;5072443;28;20054;-87
2023/12/15 02:05:36;;;;;;;22.35;12.32;;;;;;;;;;5075823;28;20066;-87
2023/12/15 02:08:02;;;;;;;23.85;14.07;;;;;;;;;;5067914;28;20039;-88
2023/12/15 02:10:28;;;;;;;24.27;12.75;;;;;;;;;;5055928;28;20059;-86
2023/12/15 02:12:54;;;;;;;23.52;13.43;;;;;;;;;;5070565;28;20036;-89
2023/12/15 02:15:20;;;;;;;25.33;14.73;;;;;;;;;;5078763;28;20051;-86
2023/12/15 02:17:46;;;;;;;28.67;15.88;;;;;;;;;;5067386;28;20044;-86
2023/12/15 02:20:12;;;;;;;27.63;15.70;;;;;;;;;;5081769;28;20060;-89
2023/12/15 02:22:38;;;;;;;28.65;15.07;;;;;;;;;;5085025;28;20478;-87
2023/12/15 02:25:05;;;;;;;31.88;16.02;;;;;;;;;;5078350;28;20054;-89
2023/12/15 02:27:31;;;;;;;28.83;15.45;;;;;;;;;;5070166;28;20115;-90
2023/12/15 02:29:57;;;;;;;28.17;16.27;;;;;;;;;;5074154;28;20051;-89
2023/12/15 02:32:23;;;;;;;30.90;15.52;;;;;;;;;;5072152;28;20397;-90
2023/12/15 02:34:49;;;;;;;32.55;18.10;;;;;;;;;;5076829;28;20040;-87
2023/12/15 02:37:15;;;;;;;30.83;16.35;;;;;;;;;;5075360;28;20027;-90
2023/12/15 02:39:40;;;;;;;29.83;16.38;;;7.20;99.90;;;;;;5059816;28;20219;-90
2023/12/15 02:42:06;;;;;;;28.15;16.63;;;;;;;;;;5061694;28;20036;-88
2023/12/15 02:44:32;;;;;;;27.90;16.15;;;;;;;;;;5070623;28;21614;-89
2023/12/15 02:46:58;;;;;;;31.17;16.70;;;;;;;;;;5071967;28;20040;-89
2023/12/15 02:49:25;;;;;;;24.58;14.13;;;;;;;;;;5078004;28;20044;-88
2023/12/15 02:51:51;;;;;;;25.42;13.75;;;;;;;;;;5072137;28;20082;-89
2023/12/15 02:54:19;;;;;;;26.00;13.55;;;7.00;99.90;;;;;;5056393;28;20025;-86
2023/12/15 02:56:45;;;;;;;22.67;12.93;;;;;;;;;;5071338;28;20025;-90
2023/12/15 02:59:13;;;;;;;24.88;12.88;;;;;;;;;;5059349;28;20040;-89
2023/12/15 03:01:41;;;;;;;20.33;10.90;;;;;;;;;;5056167;28;20029;-90
2023/12/15 03:04:07;;;;;;;20.33;11.02;;;;;;;;;;5071870;28;20485;-89
2023/12/15 03:06:33;;;;;;;20.30;10.75;;;;;;;;;;5052341;28;20029;-91
2023/12/15 03:09:02;;;;;;;18.63;10.20;;;;;;;;;;5058478;28;20047;-85
2023/12/15 03:11:28;;;;;;;18.58;9.73;;;;;;;;;;5088012;28;20052;-87
2023/12/15 03:13:54;;;;;;;20.38;9.98;;;6.90;99.90;;;;;;5074297;28;20021;-88
2023/12/15 03:16:23;;;;;;;22.67;10.88;;;6.70;99.90;;;;;;5079466;28;20084;-87
2023/12/15 03:18:48;;;;;;;20.55;10.75;;;5.90;99.90;;;;;;5064252;28;20028;-88
2023/12/15 03:21:14;;;;;;;18.30;9.43;;;;;;;;;;5098456;28;20072;-89
2023/12/15 03:23:40;;;;;;;21.65;9.93;;;;;;;;;;5092953;28;20096;-87
2023/12/15 03:26:06;;;;;;;19.20;10.25;;;;;;;;;;5087387;28;20016;-89
2023/12/15 03:28:32;;;;;;;18.98;10.65;;;6.70;99.90;;;;;;5084218;28;20581;-88
2023/12/15 03:30:58;;;;;;;17.75;9.93;;;;;;;;;;5074368;28;20024;-87
2023/12/15 03:33:27;;;;;;;20.63;10.68;;;;;;;;;;5060656;28;21674;-89
2023/12/15 03:36:46;;;;;;;20.73;10.18;;;6.70;99.90;;;;;;5041700;28;20060;-88
2023/12/15 03:42:37;;;;;;;21.48;9.32;;;;;;;;;;5058875;28;20032;-85
2023/12/15 03:45:07;;;;;;;19.73;10.40;;;6.60;99.90;;;;;;5075251;28;20111;-86
2023/12/15 03:47:39;;;;;;;20.95;10.88;;;6.60;99.90;;;;;;5058545;28;20037;-84
2023/12/15 03:50:44;;;;;;;19.95;9.88;;;6.70;99.90;;;;;;5062771;28;20037;-85
2023/12/15 03:53:33;;;;;;;18.60;9.68;;;6.70;99.90;;;;;;5066934;28;20070;-87
2023/12/15 03:56:12;;;;;;;17.77;9.70;;;6.70;99.90;;;;;;5077534;28;20020;-88
2023/12/15 03:58:59;;;;;;;15.27;8.88;;;6.70;99.90;;;;;;5062258;28;20040;-85
2023/12/15 04:01:25;;;;;;;19.83;10.45;;;;;;;;;;5060926;28;20033;-86
2023/12/15 04:04:02;;;;;;;17.00;8.80;;;6.70;99.90;;;;;;5084394;28;20100;-87
2023/12/15 04:06:28;;;;;;;18.58;10.32;;;;;;;;;;5079533;28;20551;-88
2023/12/15 04:09:01;;;;;;;17.88;9.52;;;6.70;99.90;;;;;;5072998;28;20075;-89
2023/12/15 04:11:53;;;;;;;17.40;8.82;;;6.80;99.90;;;;;;5053307;28;20031;-87
2023/12/15 04:14:19;;;;;;;18.00;9.02;;;;;;;;;;5056159;28;20028;-88
2023/12/15 04:16:45;;;;;;;19.33;9.52;;;;;;;;;;5072257;28;20052;-85
2023/12/15 04:19:11;;;;;;;15.23;8.80;;;6.80;99.90;;;;;;5067974;28;20111;-87
2023/12/15 04:21:37;;;;;;;24.88;9.02;;;;;;;;;;5053974;28;20025;-87
2023/12/15 04:24:06;;;;;;;17.80;8.85;;;6.80;99.90;;;;;;5056847;28;20032;-89
2023/12/15 04:26:38;;;;;;;17.98;8.02;;;;;;;;;;5051727;28;20462;-85
2023/12/15 04:29:12;;;;;;;15.43;8.57;;;6.80;99.90;;;;;;5056459;28;20033;-86
2023/12/15 04:31:47;;;;;;;17.30;8.63;;;6.80;99.90;;;;;;5052335;28;20060;-85
2023/12/15 04:35:03;;;;;;;;;;;;;;;;;;;;;
2023/12/15 04:37:37;;;;;;;13.55;7.88;;;6.70;99.90;;;;;;5077738;28;20059;-87
2023/12/15 04:40:59;;;;;;;18.00;8.27;;;6.80;99.90;;;;;;5055858;28;20024;-86
2023/12/15 04:43:25;;;;;;;17.15;8.10;;;6.70;99.90;;;;;;5065503;28;20066;-87
2023/12/15 04:45:51;;;;;;;14.85;8.55;;;;;;;;;;5072020;28;20485;-84
2023/12/15 04:48:19;;;;;;;21.10;9.10;;;6.60;99.90;;;;;;5067693;28;20020;-89
2023/12/15 04:54:48;;;;;;;17.27;8.35;;;6.60;99.90;;;;;;5072138;28;20032;-87
2023/12/15 04:58:14;;;;;;;22.23;8.57;;;6.60;99.90;;;;;;5063815;28;20113;-85
2023/12/15 05:01:43;;;;;;;16.90;8.02;;;6.60;99.90;;;;;;4990514;28;20064;-86
2023/12/15 05:04:38;;;;;;;15.52;8.02;;;6.60;99.90;;;;;;5019704;28;20032;-88
2023/12/15 05:08:30;;;;;;;;;;;;;;;;;;;;;
2023/12/15 05:11:41;;;;;;;;;;;;;;;;;;;;;
2023/12/15 05:14:28;;;;;;;;;;;;;;;;;;;;;
2023/12/15 05:17:08;;;;;;;13.75;7.45;;;;;;;;;;5073571;28;20034;-87
2023/12/15 05:19:45;;;;;;;18.70;7.75;;;6.60;99.90;;;;;;5057581;28;20033;-88
2023/12/15 05:22:13;;;;;;;18.83;7.43;;;8.40;99.90;;;;;;5070673;28;20058;-87
2023/12/15 05:25:09;;;;;;;16.00;8.00;;;6.60;99.90;;;;;;5067986;28;20084;-86
2023/12/15 05:28:57;;;;;;;13.45;7.15;;;6.70;99.90;;;;;;5085293;28;20040;-89
2023/12/15 05:31:31;;;;;;;17.10;8.05;;;6.70;99.90;;;;;;5062094;22;20147;-85
2023/12/15 05:34:32;;;;;;;13.82;7.38;;;6.70;99.90;;;;;;5051767;28;20064;-87
2023/12/15 05:37:48;;;;;;;16.80;7.70;;;6.60;99.90;;;;;;5034544;28;20103;-89
2023/12/15 05:41:17;;;;;;;14.57;6.88;;;6.60;99.90;;;;;;5039889;28;20037;-86
2023/12/15 05:44:20;;;;;;;18.55;7.80;;;6.70;99.90;;;;;;5031902;28;20052;-87
2023/12/15 05:47:01;;;;;;;17.17;6.93;;;6.60;99.90;;;;;;5020535;28;20029;-86
2023/12/15 05:49:56;;;;;;;13.88;6.90;;;6.60;99.90;;;;;;5029950;28;20022;-86
2023/12/15 05:52:35;;;;;;;13.70;7.28;;;6.60;99.90;;;;;;5018555;28;20081;-87
2023/12/15 05:55:22;;;;;;;14.98;7.15;;;6.60;99.90;;;;;;5035523;28;20030;-88
2023/12/15 05:58:16;;;;;;;13.38;6.50;;;6.60;99.90;;;;;;5034612;28;20037;-88
2023/12/15 06:01:11;;;;;;;15.38;6.28;;;6.60;99.90;;;;;;5029704;28;20037;-89
2023/12/15 06:04:01;;;;;;;17.20;7.20;;;6.70;99.90;;;;;;5022903;28;20123;-89
2023/12/15 06:07:09;;;;;;;14.98;6.28;;;6.70;99.90;;;;;;5018376;28;20034;-89
2023/12/15 06:10:41;;;;;;;14.10;6.30;;;6.70;99.90;;;;;;5015608;28;20506;-87
2023/12/15 06:13:36;;;;;;;15.52;6.32;;;6.70;99.90;;;;;;5035421;28;20475;-86
2023/12/15 06:16:09;;;;;;;14.75;6.13;;;6.70;99.90;;;;;;5001496;28;20041;-86
2023/12/15 06:18:39;;;;;;;18.25;6.85;;;6.70;99.90;;;;;;4991089;28;20065;-87
2023/12/15 06:21:06;;;;;;;14.40;6.50;;;6.60;99.90;;;;;;5016539;28;20036;-86
2023/12/15 06:23:38;;;;;;;15.25;7.05;;;6.60;99.90;;;;;;5019746;28;20034;-86
2023/12/15 06:26:09;;;;;;;15.30;7.93;;;6.60;99.90;;;;;;5011329;28;20060;-86
2023/12/15 06:28:45;;;;;;;14.48;7.40;;;6.50;99.90;;;;;;5022751;28;20036;-87
2023/12/15 06:31:13;;;;;;;15.75;7.15;;;6.50;99.90;;;;;;5019637;28;20498;-89
2023/12/15 06:33:43;;;;;;;;;;;6.50;99.90;;;;;;5038182;28;20563;-89
2023/12/15 06:36:13;;;;;;;13.98;7.55;;;6.50;99.90;;;;;;5054419;28;19905;-85
2023/12/15 06:38:44;;;;;;;16.30;7.28;;;6.50;99.90;;;;;;5039463;28;20021;-84
2023/12/15 06:41:12;;;;;;;18.33;7.15;;;6.50;99.90;;;;;;5031724;28;20033;-84
2023/12/15 06:43:42;;;;;;;14.45;7.30;;;6.60;99.90;;;;;;5038684;28;20024;-85
2023/12/15 06:46:09;;;;;;;13.38;6.50;;;6.60;99.90;;;;;;5037799;28;20029;-83
2023/12/15 06:48:35;;;;;;;16.67;7.55;;;6.60;99.90;;;;;;5035569;28;20082;-83
2023/12/15 06:51:02;;;;;;;15.00;7.25;;;6.60;99.90;;;;;;5031871;28;20029;-83
2023/12/15 06:53:28;;;;;;;17.38;6.97;;;6.60;99.90;;;;;;5036231;28;20074;-84
2023/12/15 06:55:55;;;;;;;17.00;7.82;;;6.60;99.90;;;;;;5036550;28;20470;-83
2023/12/15 06:58:21;;;;;;;14.80;6.85;;;6.60;99.90;;;;;;5024852;28;20033;-84
2023/12/15 07:00:48;;;;;;;13.23;6.63;;;6.60;99.90;;;;;;5037461;28;20037;-85
2023/12/15 07:03:14;;;;;;;15.55;7.00;;;6.60;99.90;;;;;;5036858;28;20033;-86
2023/12/15 07:05:41;;;;;;;15.68;7.57;;;6.60;99.90;;;;;;5019814;28;20037;-87
2023/12/15 07:08:08;;;;;;;14.10;6.70;;;6.60;99.90;;;;;;5019321;28;20036;-87
2023/12/15 07:10:34;;;;;;;13.15;7.05;;;6.60;99.90;;;;;;5033980;28;20093;-83
2023/12/15 07:13:00;;;;;;;11.23;6.25;;;6.70;99.90;;;;;;5037602;28;20057;-86
2023/12/15 07:15:28;;;;;;;14.95;6.55;;;6.70;99.90;;;;;;5036846;28;20036;-84
2023/12/15 07:17:54;;;;;;;12.88;6.25;;;6.70;99.90;;;;;;5058177;28;20032;-86
2023/12/15 07:20:24;;;;;;;11.50;6.10;;;6.60;99.90;;;;;;5044089;28;20032;-86
2023/12/15 07:22:51;;;;;;;15.70;6.38;;;6.70;99.90;;;;;;5037810;28;20060;-85
2023/12/15 07:25:29;;;;;;;16.83;6.22;;;6.70;99.90;;;;;;5038418;28;20033;-85
2023/12/15 07:28:15;;;;;;;12.25;6.13;;;6.80;99.90;;;;;;5038387;28;20032;-86
2023/12/15 07:30:42;;;;;;;13.60;7.22;;;7.10;99.90;;;;;;5030139;28;20034;-85
2023/12/15 07:33:09;;;;;;;13.82;6.72;;;6.80;99.90;;;;;;5018620;28;20061;-87
2023/12/15 07:35:37;;;;;;;21.13;8.00;;;6.80;99.90;;;;;;5018915;28;20057;-86
2023/12/15 07:38:08;;;;;;;18.80;7.57;;;6.80;99.90;;;;;;5019807;28;20037;-84
2023/12/15 07:40:35;;;;;;;17.05;8.63;;;6.80;99.90;;;;;;5017805;28;20026;-89
2023/12/15 07:43:02;;;;;;;17.60;8.50;;;6.80;99.90;;;;;;5018754;28;20089;-85
2023/12/15 07:45:40;;;;;;;15.85;7.57;;;6.80;99.90;;;;;;5017270;28;20033;-84
2023/12/15 07:48:10;;;;;;;14.40;7.63;;;7.40;99.90;;;;;;5019017;28;20030;-86
2023/12/15 07:50:36;;;;;;;20.38;7.80;;;6.70;99.90;;;;;;4998780;28;20040;-87
2023/12/15 07:53:03;;;;;;;14.23;7.50;;;6.80;99.90;;;;;;5035204;28;20034;-85
2023/12/15 07:55:29;;;;;;;18.15;8.90;;;6.70;99.90;;;;;;5029723;28;20028;-82
2023/12/15 07:57:56;;;;;;;15.95;7.20;;;7.30;99.90;;;;;;5030748;28;20140;-86
2023/12/15 08:00:22;;;;;;;14.57;7.03;;;6.70;99.90;;;;;;5029077;28;20034;-82
2023/12/15 08:02:48;;;;;;;13.43;7.22;;;6.70;99.90;;;;;;5024592;28;20060;-81
2023/12/15 08:05:14;;;;;;;10.77;6.15;;;7.60;99.90;;;;;;5008327;28;20032;-84
2023/12/15 08:07:42;;;;;;;11.30;6.30;;;6.60;99.90;;;;;;5011967;28;20029;-81
2023/12/15 08:10:09;;;;;;;10.82;6.43;;;6.70;99.90;;;;;;5003373;28;20030;-85
2023/12/15 08:12:34;;;;;;;18.95;7.07;;;6.60;99.90;;;;;;5009911;28;20021;-84
2023/12/15 08:15:01;;;;;;;12.45;6.68;;;6.70;99.90;;;;;;5026961;28;20025;-84
2023/12/15 08:17:26;;;;;;;13.10;6.78;;;6.70;99.90;;;;;;5027665;28;20120;-84
2023/12/15 08:19:52;;;;;;;12.73;6.53;;;6.70;99.90;;;;;;5010595;28;20167;-83
2023/12/15 08:22:18;;;;;;;13.93;7.03;;;6.70;99.90;;;;;;5002708;28;20114;-84
2023/12/15 08:24:44;;;;;;;11.00;7.00;;;6.70;99.90;;;;;;5021534;28;20038;-86
2023/12/15 08:27:09;;;;;;;16.95;6.80;;;6.70;99.90;;;;;;5009388;28;20057;-85
2023/12/15 08:29:35;;;;;;;10.77;5.93;;;6.70;99.90;;;;;;4998283;28;20064;-82
2023/12/15 08:32:01;;;;;;;12.65;6.65;;;6.80;99.90;;;;;;5027786;28;20037;-82
2023/12/15 08:34:27;;;;;;;14.98;6.75;;;6.70;99.90;;;;;;5025660;28;20388;-81
2023/12/15 08:36:53;;;;;;;13.43;6.43;;;6.70;99.90;;;;;;5045206;28;20029;-85
2023/12/15 08:39:19;;;;;;;13.85;6.90;;;6.80;99.90;;;;;;5043831;28;20035;-83
2023/12/15 08:41:44;;;;;;;15.77;6.80;;;6.80;99.90;;;;;;5040595;28;20029;-82
2023/12/15 08:44:10;;;;;;;11.00;6.53;;;7.50;99.90;;;;;;5044699;28;20075;-85
2023/12/15 08:46:36;;;;;;;16.85;7.72;;;;;;;;;;5043585;28;20124;-85
2023/12/15 08:49:02;;;;;;;13.95;6.07;;;6.50;99.90;;;;;;5043731;28;20029;-85
2023/12/15 08:51:28;;;;;;;16.83;6.80;;;6.80;99.90;;;;;;5039135;28;20060;-83
2023/12/15 08:53:53;;;;;;;15.43;6.70;;;6.90;99.90;;;;;;5038146;28;20489;-83
2023/12/15 08:56:19;;;;;;;16.42;6.93;;;7.50;99.90;;;;;;5022423;28;20032;-82
2023/12/15 08:58:45;;;;;;;15.98;7.00;;;6.90;99.90;;;;;;5024918;28;20476;-83
2023/12/15 09:01:11;;;;;;;13.52;5.90;;;6.90;99.90;;;;;;5024473;28;20024;-84
2023/12/15 09:03:36;;;;;;;12.18;6.95;;;6.90;99.90;;;;;;5039625;28;20373;-86
2023/12/15 09:06:02;;;;;;;28.35;8.50;;;9.00;99.90;;;;;;5022422;28;20256;-86
2023/12/15 09:08:28;;;;;;;14.57;6.40;;;7.00;99.90;;;;;;5039972;28;20032;-80
2023/12/15 09:10:54;;;;;;;14.13;6.45;;;7.10;99.90;;;;;;5031802;28;20025;-83
2023/12/15 09:13:21;;;;;;;15.43;6.45;;;7.10;99.90;;;;;;5047592;28;20039;-83
2023/12/15 09:15:46;;;;;;;14.35;6.50;;;7.10;99.90;;;;;;5051058;28;20033;-82
2023/12/15 09:18:14;;;;;;;14.75;7.10;;;7.10;99.90;;;;;;5033199;28;20033;-83
2023/12/15 09:20:39;;;;;;;14.35;6.80;;;7.10;99.90;;;;;;5055365;28;20458;-84
2023/12/15 09:23:09;;;;;;;16.13;6.88;;;7.10;99.90;;;;;;5046832;28;20091;-80
2023/12/15 09:25:36;;;;;;;14.57;6.90;;;7.10;99.90;;;;;;5025920;28;20063;-83
2023/12/15 09:28:03;;;;;;;16.75;6.65;;;7.10;99.90;;;;;;5027673;28;20276;-82
2023/12/15 09:30:29;;;;;;;18.08;7.65;;;7.30;99.90;;;;;;5020411;28;20116;-81
2023/12/15 09:32:55;;;;;;;11.52;6.60;;;7.20;99.90;;;;;;5023151;28;20116;-83
2023/12/15 09:35:21;;;;;;;12.90;6.68;;;;;;;;;;5044675;28;20029;-81
2023/12/15 09:37:47;;;;;;;14.88;6.80;;;7.30;99.90;;;;;;5028924;28;20030;-80
2023/12/15 09:40:14;;;;;;;15.30;7.07;;;7.30;99.90;;;;;;5025309;28;20033;-83
2023/12/15 09:42:40;;;;;;;13.63;7.15;;;7.40;99.90;;;;;;5048682;28;20460;-84
2023/12/15 09:45:06;;;;;;;12.25;6.85;;;9.40;99.90;;;;;;5028130;28;20053;-83
2023/12/15 09:47:36;;;;;;;13.88;7.40;;;7.40;99.90;;;;;;5024055;28;20066;-81
2023/12/15 09:50:04;;;;;;;17.00;7.13;;;8.00;99.90;;;;;;5023455;28;20094;-82
2023/12/15 09:52:32;;;;;;;13.38;6.55;;;7.30;99.90;;;;;;5025188;28;20025;-81
2023/12/15 09:54:59;;;;;;;15.63;6.93;;;7.40;99.90;;;;;;5043632;28;20478;-83
2023/12/15 09:57:25;;;;;;;16.73;7.03;;;7.40;99.90;;;;;;5021998;28;20504;-82
2023/12/15 09:59:51;;;;;;;12.88;7.32;;;7.50;99.90;;;;;;5036680;28;20040;-85
2023/12/15 10:02:17;;;;;;;16.08;7.65;;;7.50;99.90;;;;;;5040463;28;20029;-85
2023/12/15 10:04:42;;;;;;;15.30;7.57;;;7.60;99.90;;;;;;5028511;28;20098;-86
2023/12/15 10:07:08;;;;;;;14.55;7.60;;;7.70;99.90;;;;;;5025394;28;20078;-83
2023/12/15 10:09:38;;;;;;;17.40;8.40;;;9.00;99.90;;;;;;5024914;28;20076;-85
2023/12/15 10:12:10;;;;;;;15.60;7.60;;;8.30;99.90;;;;;;5031403;28;20590;-84
2023/12/15 10:14:39;;;;;;;20.00;7.78;;;7.80;99.90;;;;;;5021718;28;20283;-84
2023/12/15 10:17:09;;;;;;;14.15;7.85;;;7.80;99.90;;;;;;5028952;28;20029;-79
2023/12/15 10:19:35;;;;;;;12.75;7.25;;;7.90;99.90;;;;;;5045532;28;20026;-81
2023/12/15 10:22:02;;;;;;;14.55;7.20;;;7.90;99.90;;;;;;5056743;28;20037;-82
2023/12/15 10:24:28;;;;;;;14.13;7.55;;;7.90;99.90;;;;;;5043340;28;20033;-81
2023/12/15 10:26:53;;;;;;;16.25;7.53;;;9.20;99.90;;;;;;5059103;28;20044;-81
2023/12/15 10:29:20;;;;;;;15.60;7.85;;;7.80;99.90;;;;;;5042259;28;20029;-81
2023/12/15 10:31:49;;;;;;;14.63;7.10;;;7.90;99.90;;;;;;5055735;28;20249;-83
2023/12/15 10:34:15;;;;;;;18.20;8.18;;;8.00;99.90;;;;;;5039651;28;20021;-82
2023/12/15 10:36:44;;;;;;;15.20;8.57;;;8.50;99.90;;;;;;5056445;28;20043;-79
2023/12/15 10:39:17;;;;;;;16.20;7.85;;;9.50;99.90;;;;;;5042632;28;20031;-83
2023/12/15 10:41:43;;;;;;;20.05;8.52;;;8.00;99.90;;;;;;5052062;28;20025;-84
2023/12/15 10:44:12;;;;;;;13.60;8.20;;;9.20;99.90;;;;;;5042034;28;20021;-80
2023/12/15 10:46:40;;;;;;;16.38;8.07;;;8.10;99.90;;;;;;5054588;28;20029;-79
2023/12/15 10:49:08;;;;;;;17.52;8.65;;;8.10;99.90;;;;;;5058343;28;20033;-80
2023/12/15 10:51:35;;;;;;;18.13;7.82;;;9.30;99.90;;;;;;5041778;28;20025;-79
2023/12/15 10:54:04;;;;;;;12.45;6.97;;;8.20;99.90;;;;;;5053428;28;20027;-84
2023/12/15 10:56:30;;;;;;;14.05;7.05;;;8.20;99.90;;;;;;5030325;28;20033;-82
2023/12/15 10:58:56;;;;;;;15.35;7.28;;;8.30;99.90;;;;;;5047089;28;20029;-82
2023/12/15 11:01:23;;;;;;;15.35;7.75;;;8.30;99.90;;;;;;5029927;28;20777;-81
2023/12/15 11:03:51;;;;;;;20.40;7.68;;;9.10;99.90;;;;;;5030671;28;20031;-79
2023/12/15 11:06:30;;;;;;;15.23;7.80;;;9.20;99.90;;;;;;5045654;28;20392;-81
2023/12/15 11:09:00;;;;;;;16.60;7.40;;;9.60;99.90;;;;;;5044510;28;20048;-83
2023/12/15 11:11:27;;;;;;;14.90;7.40;;;8.20;99.90;;;;;;5023434;28;20021;-85
2023/12/15 11:14:04;;;;;;;16.95;8.25;;;8.30;99.90;;;;;;5041983;28;20434;-85
2023/12/15 11:16:36;;;;;;;14.90;8.18;;;8.10;99.90;;;;;;5039996;28;20055;-85
2023/12/15 11:19:02;;;;;;;18.48;8.35;;;8.00;99.90;;;;;;5041248;28;20605;-81
2023/12/15 11:21:30;;;;;;;17.05;8.88;;;8.10;99.90;;;;;;5042482;28;20029;-84
2023/12/15 11:24:03;;;;;;;22.50;8.48;;;8.10;99.90;;;;;;5039134;28;20437;-86
2023/12/15 11:26:31;;;;;;;18.73;8.23;;;8.00;99.90;;;;;;5041731;28;20060;-79
2023/12/15 11:29:02;;;;;;;17.17;8.35;;;8.00;99.90;;;;;;5047859;28;20128;-84
2023/12/15 11:31:28;;;;;;;17.20;8.43;;;;;;;;;;5027414;28;20120;-82
2023/12/15 11:33:55;;;;;;;14.15;7.35;;;7.60;99.90;;;;;;5025622;28;20278;-80
2023/12/15 11:36:21;;;;;;;14.80;7.28;;;7.50;99.90;;;;;;5036721;23;20029;-81
2023/12/15 11:38:50;;;;;;;17.95;8.35;;;;;;;;;;5007595;28;21056;-84
2023/12/15 11:41:18;;;;;;;13.18;7.63;;;7.50;99.90;;;;;;5028588;28;20025;-83
2023/12/15 11:43:44;;;;;;;15.00;7.90;;;7.50;99.90;;;;;;5005017;28;20532;-83
2023/12/15 11:46:13;;;;;;;12.80;7.38;;;7.50;99.90;;;;;;5015714;28;20036;-82
2023/12/15 11:48:40;;;;;;;15.45;8.50;;;8.60;99.90;;;;;;4988362;28;20031;-80
2023/12/15 11:51:08;;;;;;;16.90;8.25;;;8.20;99.90;;;;;;4988017;28;20398;-81
2023/12/15 11:53:36;;;;;;;18.25;8.48;;;7.60;99.90;;;;;;5001539;28;20050;-79
2023/12/15 11:56:05;;;;;;;13.63;7.32;;;8.40;99.90;;;;;;5002859;28;20034;-82
2023/12/15 11:58:30;;;;;;;15.57;8.35;;;7.10;99.90;;;;;;4987666;28;20486;-81
2023/12/15 12:00:56;;;;;;;13.45;8.13;;;;;;;;;;4991779;28;20080;-83
2023/12/15 12:03:22;;;;;;;13.23;7.13;;;7.50;99.90;;;;;;4990117;28;20081;-81
2023/12/15 12:05:54;;;;;;;10.50;7.15;;;7.60;99.90;;;;;;4989987;28;20124;-81
2023/12/15 12:08:21;;;;;;;13.63;7.22;;;9.60;99.90;;;;;;5008448;28;20042;-80
2023/12/15 12:10:50;;;;;;;11.25;6.65;;;9.70;99.90;;;;;;4983646;28;20418;-82
2023/12/15 12:13:16;;;;;;;9.13;5.63;;;7.60;99.90;;;;;;5008654;28;20364;-81
2023/12/15 12:15:52;;;;;;;11.10;6.35;;;7.70;99.90;;;;;;5009004;28;20109;-82
2023/12/15 12:18:22;;;;;;;11.38;6.80;;;7.70;99.90;;;;;;5010536;28;20037;-81
2023/12/15 12:20:48;;;;;;;11.25;6.60;;;7.70;99.90;;;;;;4992401;28;20416;-80
2023/12/15 12:23:14;;;;;;;11.77;7.47;;;7.90;99.90;;;;;;5004529;28;20018;-82
2023/12/15 12:25:47;;;;;;;15.93;7.75;;;9.90;99.90;;;;;;5003536;28;20493;-83
2023/12/15 12:28:16;;;;;;;13.65;7.63;;;7.70;99.90;;;;;;5002791;28;20090;-83
2023/12/15 12:30:41;;;;;;;14.43;6.90;;;7.70;99.90;;;;;;5000516;28;20027;-86
2023/12/15 12:33:07;;;;;;;15.27;7.85;;;7.60;99.90;;;;;;4984892;28;20030;-84
2023/12/15 12:35:33;;;;;;;13.63;6.63;;;;;;;;;;5001778;28;20032;-86
2023/12/15 12:37:59;;;;;;;12.02;6.93;;;;;;;;;;5003272;28;20026;-83
2023/12/15 12:40:25;;;;;;;14.75;8.98;;;7.60;99.90;;;;;;4999522;28;20022;-79
2023/12/15 12:42:51;;;;;;;13.10;7.95;;;8.60;99.90;;;;;;4990752;28;20029;-85
2023/12/15 12:45:18;;;;;;;16.42;8.07;;;;;;;;;;5003844;28;20021;-84
2023/12/15 12:47:47;;;;;;;14.82;7.95;;;7.60;99.90;;;;;;5004869;28;20030;-81
2023/12/15 12:50:12;;;;;;;15.00;8.57;;;9.00;99.90;;;;;;5006135;28;20026;-85
2023/12/15 12:52:38;;;;;;;14.27;7.80;;;8.60;99.90;;;;;;4996350;28;20030;-85
2023/12/15 12:55:06;;;;;;;14.25;7.85;;;7.80;99.90;;;;;;5004403;28;20021;-81
2023/12/15 12:57:32;;;;;;;11.35;7.18;;;7.70;99.90;;;;;;4986135;28;20029;-85
2023/12/15 12:59:58;;;;;;;12.88;6.78;;;7.60;99.90;;;;;;5008325;28;20049;-85
2023/12/15 13:02:24;;;;;;;13.65;7.47;;;;;;;;;;4988750;28;20042;-87
2023/12/15 13:04:50;;;;;;;16.17;8.10;;;7.70;99.90;;;;;;5001641;28;20045;-87
2023/12/15 13:07:16;;;;;;;16.10;7.25;;;;;;;;;;4983502;28;20117;-86
2023/12/15 13:09:42;;;;;;;12.07;7.22;;;7.80;99.90;;;;;;4998591;28;20497;-87
2023/12/15 13:12:08;;;;;;;10.25;6.50;;;;;;;;;;4984419;28;20054;-87
2023/12/15 13:14:34;;;;;;;11.10;6.95;;;7.70;99.90;;;;;;4998147;28;20674;-85
2023/12/15 13:17:00;;;;;;;13.40;7.88;;;7.60;99.90;;;;;;4997658;28;20038;-84
2023/12/15 13:19:26;;;;;;;14.20;7.38;;;;;;;;;;5007452;28;20026;-83
2023/12/15 13:21:51;;;;;;;14.98;8.30;;;7.70;99.90;;;;;;5002474;28;20026;-84
2023/12/15 13:24:17;;;;;;;14.23;7.82;;;7.60;99.90;;;;;;5006383;28;20071;-83
2023/12/15 13:26:42;;;;;;;14.38;7.63;;;9.60;99.90;;;;;;4986400;28;20518;-84
2023/12/15 13:29:08;;;;;;;16.85;7.80;;;8.60;99.90;;;;;;5000573;28;20038;-82
2023/12/15 13:31:34;;;;;;;10.63;7.28;;;7.60;99.90;;;;;;4984437;28;20046;-85
2023/12/15 13:33:59;;;;;;;13.85;8.20;;;8.30;99.90;;;;;;4982352;28;20130;-80
2023/12/15 13:36:25;;;;;;;11.70;7.43;;;9.60;99.90;;;;;;4994438;28;20572;-83
2023/12/15 13:38:51;;;;;;;13.10;7.05;;;;;;;;;;4998736;28;20034;-86
2023/12/15 13:41:18;;;;;;;12.50;7.75;;;7.70;99.90;;;;;;5008847;28;20172;-83
2023/12/15 13:43:44;;;;;;;12.95;7.18;;;8.80;99.90;;;;;;4986887;28;20038;-82
2023/12/15 13:46:09;;;;;;;14.80;7.85;;;7.70;99.90;;;;;;4994480;28;20037;-84
2023/12/15 13:48:36;;;;;;;15.38;6.75;;;9.00;99.90;;;;;;4995377;28;20041;-83
2023/12/15 13:51:02;;;;;;;11.48;7.55;;;7.70;99.90;;;;;;5001098;28;20083;-81
2023/12/15 13:53:29;;;;;;;12.85;7.10;;;7.70;99.90;;;;;;5001206;28;20048;-83
2023/12/15 13:55:55;;;;;;;17.05;8.00;;;7.80;99.90;;;;;;4981779;28;20061;-87
2023/12/15 13:58:21;;;;;;;16.10;8.45;;;8.90;99.90;;;;;;5007274;28;20046;-81
2023/12/15 14:00:47;;;;;;;15.98;8.00;;;10.30;99.90;;;;;;5002371;28;20053;-82
2023/12/15 14:03:13;;;;;;;15.68;8.55;;;;;;;;;;4988482;28;20103;-80
2023/12/15 14:05:38;;;;;;;17.52;7.93;;;7.70;99.90;;;;;;4986536;28;20494;-83